createdAt,value
2022-12-29T00:00:04.120Z,52.53
2022-12-29T00:02:32.450Z,52.58
2022-12-29T00:05:00.739Z,52.39
2022-12-29T00:07:29.052Z,52.40
2022-12-29T00:09:57.293Z,52.58
2022-12-29T00:12:25.531Z,52.34
2022-12-29T00:15:11.359Z,52.45
2022-12-29T00:17:41.000Z,52.26
2022-12-29T00:20:39.319Z,52.31
2022-12-29T00:23:24.717Z,52.56
2022-12-29T00:26:10.277Z,52.41
2022-12-29T00:28:56.044Z,52.27
2022-12-29T00:31:41.638Z,52.45
2022-12-29T00:34:31.159Z,52.64
2022-12-29T00:36:59.659Z,52.71
2022-12-29T00:39:45.167Z,52.77
2022-12-29T00:42:36.086Z,52.42
2022-12-29T00:45:04.601Z,52.80
2022-12-29T00:47:32.831Z,52.67
2022-12-29T00:50:01.459Z,52.68
2022-12-29T00:52:29.718Z,52.49
2022-12-29T00:54:58.007Z,52.60
2022-12-29T00:57:26.297Z,52.56
2022-12-29T00:59:54.525Z,52.57
2022-12-29T01:02:22.860Z,52.29
2022-12-29T01:04:51.104Z,52.69
2022-12-29T01:07:20.692Z,52.79
2022-12-29T01:10:06.476Z,52.55
2022-12-29T01:12:46.247Z,52.49
2022-12-29T01:15:16.729Z,52.48
2022-12-29T01:17:45.217Z,52.75
2022-12-29T01:20:14.086Z,52.65
2022-12-29T01:22:44.766Z,52.77
2022-12-29T01:25:13.004Z,52.68
2022-12-29T01:27:42.309Z,52.79
2022-12-29T01:30:11.959Z,52.64
2022-12-29T01:32:40.182Z,52.45
2022-12-29T01:35:09.210Z,52.58
2022-12-29T01:37:37.481Z,52.76
2022-12-29T01:40:08.554Z,52.78
2022-12-29T01:42:36.773Z,52.52
2022-12-29T01:45:11.251Z,52.41
2022-12-29T01:47:44.056Z,52.60
2022-12-29T01:50:17.004Z,52.43
2022-12-29T01:52:55.428Z,52.47
2022-12-29T01:55:25.748Z,52.51
2022-12-29T01:57:55.601Z,52.66
2022-12-29T02:00:24.158Z,52.89
2022-12-29T02:02:54.768Z,52.90
2022-12-29T02:05:30.234Z,52.79
2022-12-29T02:07:58.806Z,52.67
2022-12-29T02:10:32.832Z,52.86
2022-12-29T02:13:02.061Z,52.40
2022-12-29T02:15:50.998Z,52.85
2022-12-29T02:18:35.282Z,52.85
2022-12-29T02:21:48.321Z,52.87
2022-12-29T02:25:01.977Z,52.85
2022-12-29T02:28:39.662Z,52.66
2022-12-29T02:31:19.428Z,52.90
2022-12-29T02:34:03.480Z,53.02
2022-12-29T02:36:43.268Z,52.79
2022-12-29T02:39:24.114Z,52.82
2022-12-29T02:42:06.094Z,53.04
2022-12-29T02:44:48.200Z,53.17
2022-12-29T02:47:24.779Z,52.92
2022-12-29T02:50:00.797Z,53.17
2022-12-29T02:52:34.024Z,52.94
2022-12-29T02:55:01.325Z,53.23
2022-12-29T02:57:36.051Z,53.32
2022-12-29T03:00:10.058Z,53.39
2022-12-29T03:03:10.186Z,52.96
2022-12-29T03:05:57.099Z,52.98
2022-12-29T03:08:34.349Z,52.99
2022-12-29T03:11:06.154Z,53.33
2022-12-29T03:14:02.575Z,53.27
2022-12-29T03:16:37.418Z,52.86
2022-12-29T03:19:12.880Z,52.96
2022-12-29T03:22:04.777Z,53.29
2022-12-29T03:24:38.685Z,53.24
2022-12-29T03:27:11.307Z,53.11
2022-12-29T03:29:47.283Z,53.08
2022-12-29T03:32:17.558Z,53.31
2022-12-29T03:34:48.894Z,53.44
2022-12-29T03:37:20.744Z,53.26
2022-12-29T03:39:49.359Z,53.56
2022-12-29T03:42:24.812Z,53.41
2022-12-29T03:44:56.689Z,53.50
2022-12-29T03:47:26.217Z,53.54
2022-12-29T03:49:56.599Z,53.65
2022-12-29T03:52:24.828Z,53.78
2022-12-29T03:54:53.049Z,53.78
2022-12-29T03:57:21.299Z,53.51
2022-12-29T03:59:49.899Z,53.65
2022-12-29T04:02:18.517Z,53.64
2022-12-29T04:04:46.897Z,54.09
2022-12-29T04:07:16.482Z,54.09
2022-12-29T04:09:46.355Z,53.80
2022-12-29T04:12:15.376Z,54.12
2022-12-29T04:14:43.657Z,53.84
2022-12-29T04:17:11.916Z,53.98
2022-12-29T04:19:40.111Z,54.32
2022-12-29T04:22:08.330Z,54.29
2022-12-29T04:24:37.973Z,54.34
2022-12-29T04:27:06.573Z,54.30
2022-12-29T04:29:35.035Z,54.06
2022-12-29T04:32:03.263Z,54.52
2022-12-29T04:34:31.482Z,54.20
2022-12-29T04:36:59.689Z,54.40
2022-12-29T04:39:27.904Z,54.41
2022-12-29T04:41:57.657Z,54.64
2022-12-29T04:44:25.894Z,54.53
2022-12-29T04:46:54.186Z,54.54
2022-12-29T04:49:22.468Z,54.75
2022-12-29T04:51:50.697Z,54.59
2022-12-29T04:54:18.934Z,54.59
2022-12-29T04:56:47.200Z,54.78
2022-12-29T04:59:16.816Z,54.67
2022-12-29T05:01:45.751Z,54.59
2022-12-29T05:04:14.530Z,54.61
2022-12-29T05:06:42.820Z,54.51
2022-12-29T05:09:11.138Z,54.55
2022-12-29T05:11:39.357Z,54.89
2022-12-29T05:14:07.645Z,54.81
2022-12-29T05:16:37.346Z,54.71
2022-12-29T05:19:05.667Z,54.75
2022-12-29T05:21:33.953Z,54.83
2022-12-29T05:24:02.228Z,54.54
2022-12-29T05:26:30.520Z,54.78
2022-12-29T05:28:58.821Z,54.63
2022-12-29T05:31:27.178Z,54.97
2022-12-29T05:33:56.888Z,54.63
2022-12-29T05:36:25.155Z,54.78
2022-12-29T05:38:53.410Z,55.15
2022-12-29T05:41:21.891Z,55.15
2022-12-29T05:43:50.207Z,54.93
2022-12-29T05:46:18.504Z,55.03
2022-12-29T05:48:46.892Z,55.09
2022-12-29T05:51:16.470Z,55.24
2022-12-29T05:53:46.618Z,55.02
2022-12-29T05:56:14.899Z,55.30
2022-12-29T05:58:43.178Z,55.28
2022-12-29T06:01:11.423Z,55.10
2022-12-29T06:03:44.506Z,55.31
2022-12-29T06:06:17.689Z,55.04
2022-12-29T06:08:46.062Z,55.44
2022-12-29T06:11:14.612Z,55.05
2022-12-29T06:13:43.552Z,55.06
2022-12-29T06:16:11.867Z,55.19
2022-12-29T06:18:40.194Z,54.98
2022-12-29T06:21:09.064Z,55.01
2022-12-29T06:23:38.679Z,55.38
2022-12-29T06:26:07.162Z,55.37
2022-12-29T06:28:35.428Z,55.21
2022-12-29T06:31:04.024Z,55.30
2022-12-29T06:33:32.561Z,55.23
2022-12-29T06:36:00.783Z,55.56
2022-12-29T06:38:29.114Z,55.21
2022-12-29T06:40:58.691Z,55.08
2022-12-29T06:43:26.948Z,55.47
2022-12-29T06:45:55.288Z,55.14
2022-12-29T06:48:24.521Z,55.52
2022-12-29T06:50:52.774Z,55.03
2022-12-29T06:53:21.022Z,55.10
2022-12-29T06:55:49.310Z,54.92
2022-12-29T06:58:18.948Z,55.42
2022-12-29T07:00:47.280Z,55.08
2022-12-29T07:03:15.598Z,55.19
2022-12-29T07:05:43.910Z,55.21
2022-12-29T07:08:12.193Z,55.16
2022-12-29T07:10:40.558Z,55.40
2022-12-29T07:13:09.201Z,55.36
2022-12-29T07:15:39.242Z,55.19
2022-12-29T07:18:07.683Z,55.22
2022-12-29T07:20:36.161Z,55.43
2022-12-29T07:23:05.086Z,55.21
2022-12-29T07:25:33.354Z,55.20
2022-12-29T07:28:01.618Z,55.27
2022-12-29T07:30:29.879Z,55.29
2022-12-29T07:32:59.591Z,55.46
2022-12-29T07:35:27.851Z,55.26
2022-12-29T07:37:56.118Z,55.46
2022-12-29T07:40:24.413Z,55.25
2022-12-29T07:42:52.716Z,55.16
2022-12-29T07:45:20.950Z,55.40
2022-12-29T07:47:51.049Z,55.56
2022-12-29T07:50:20.692Z,55.13
2022-12-29T07:52:49.010Z,55.13
2022-12-29T07:55:17.640Z,55.07
2022-12-29T07:57:46.073Z,55.31
2022-12-29T08:00:16.210Z,55.38
2022-12-29T08:02:44.568Z,55.48
2022-12-29T08:05:12.914Z,55.56
2022-12-29T08:07:42.585Z,55.59
2022-12-29T08:10:11.172Z,55.42
2022-12-29T08:12:41.010Z,55.51
2022-12-29T08:15:11.799Z,55.69
2022-12-29T08:17:40.684Z,55.45
2022-12-29T08:20:10.788Z,55.44
2022-12-29T08:22:39.143Z,55.64
2022-12-29T08:25:10.093Z,55.68
2022-12-29T08:27:38.429Z,55.34
2022-12-29T08:30:08.441Z,55.36
2022-12-29T08:32:36.712Z,55.42
2022-12-29T08:35:05.603Z,55.55
2022-12-29T08:37:34.980Z,55.57
2022-12-29T08:40:04.968Z,55.50
2022-12-29T08:42:34.931Z,55.71
2022-12-29T08:45:03.836Z,55.50
2022-12-29T08:47:32.140Z,55.52
2022-12-29T08:50:00.397Z,55.74
2022-12-29T08:52:28.673Z,55.50
2022-12-29T08:54:56.985Z,55.37
2022-12-29T08:57:25.915Z,55.28
2022-12-29T08:59:55.515Z,55.22
2022-12-29T09:02:24.502Z,55.34
2022-12-29T09:04:53.424Z,55.17
2022-12-29T09:07:21.755Z,55.32
2022-12-29T09:09:50.048Z,55.39
2022-12-29T09:12:19.176Z,55.49
2022-12-29T09:14:48.615Z,55.63
2022-12-29T09:17:35.889Z,55.66
2022-12-29T09:20:04.399Z,55.79
2022-12-29T09:22:32.750Z,56.12
2022-12-29T09:25:01.007Z,56.09
2022-12-29T09:27:29.237Z,56.01
2022-12-29T09:29:57.660Z,56.18
2022-12-29T09:32:31.208Z,56.15
2022-12-29T09:35:01.896Z,56.17
2022-12-29T09:37:30.301Z,56.19
2022-12-29T09:39:58.531Z,56.13
2022-12-29T09:42:34.335Z,56.00
2022-12-29T09:45:13.332Z,55.82
2022-12-29T09:47:43.991Z,54.80
2022-12-29T09:50:25.279Z,54.49
2022-12-29T09:52:59.906Z,54.43
2022-12-29T09:55:37.978Z,54.71
2022-12-29T09:58:12.236Z,54.91
2022-12-29T10:00:55.196Z,54.91
2022-12-29T10:03:30.239Z,54.95
2022-12-29T10:06:10.406Z,54.41
2022-12-29T10:08:44.536Z,54.17
2022-12-29T10:11:33.151Z,54.33
2022-12-29T10:14:23.559Z,52.67
2022-12-29T10:17:01.048Z,51.86
2022-12-29T10:19:52.289Z,52.04
2022-12-29T10:22:43.614Z,52.63
2022-12-29T10:25:18.586Z,49.26
2022-12-29T10:27:50.649Z,49.13
2022-12-29T10:30:20.231Z,47.48
2022-12-29T10:32:54.411Z,47.02
2022-12-29T10:35:26.976Z,47.32
2022-12-29T10:38:04.539Z,47.26
2022-12-29T10:40:40.941Z,46.91
2022-12-29T10:43:24.652Z,46.44
2022-12-29T10:45:54.883Z,46.75
2022-12-29T10:48:31.795Z,47.45
2022-12-29T10:51:05.320Z,47.39
2022-12-29T10:53:42.607Z,47.65
2022-12-29T10:56:29.998Z,47.92
2022-12-29T10:59:02.575Z,47.46
2022-12-29T11:01:40.107Z,47.19
2022-12-29T11:04:29.208Z,46.44
2022-12-29T11:06:59.629Z,44.71
2022-12-29T11:09:41.890Z,44.79
2022-12-29T11:12:25.622Z,45.17
2022-12-29T11:15:16.891Z,43.95
2022-12-29T11:17:51.589Z,42.99
2022-12-29T11:20:36.523Z,43.85
2022-12-29T11:23:23.266Z,44.14
2022-12-29T11:26:19.907Z,45.13
2022-12-29T11:28:50.365Z,44.90
2022-12-29T11:31:21.384Z,44.85
2022-12-29T11:33:49.866Z,44.47
2022-12-29T11:36:22.994Z,44.59
2022-12-29T11:38:55.991Z,45.02
2022-12-29T11:41:27.643Z,44.42
2022-12-29T11:43:58.208Z,43.10
2022-12-29T11:46:30.709Z,42.71
2022-12-29T11:49:01.659Z,42.87
2022-12-29T11:51:36.385Z,42.15
2022-12-29T11:54:08.300Z,40.82
2022-12-29T11:56:41.525Z,41.27
2022-12-29T11:59:42.698Z,41.00
2022-12-29T12:02:42.981Z,40.91
2022-12-29T12:05:32.056Z,41.14
2022-12-29T12:08:10.212Z,40.77
2022-12-29T12:10:47.010Z,40.87
2022-12-29T12:13:25.071Z,41.26
2022-12-29T12:16:01.699Z,39.59
2022-12-29T12:18:41.496Z,39.69
2022-12-29T12:21:21.047Z,38.13
2022-12-29T12:24:24.416Z,39.41
2022-12-29T12:27:03.342Z,40.65
2022-12-29T12:29:42.231Z,41.12
2022-12-29T12:32:18.968Z,40.38
2022-12-29T12:34:48.797Z,39.39
2022-12-29T12:37:45.185Z,39.73
2022-12-29T12:40:45.471Z,39.87
2022-12-29T12:43:41.947Z,39.87
2022-12-29T12:46:31.626Z,39.61
2022-12-29T12:49:32.527Z,39.31
2022-12-29T12:52:12.638Z,40.21
2022-12-29T12:55:03.091Z,40.68
2022-12-29T12:57:51.632Z,40.95
2022-12-29T13:00:24.419Z,41.54
2022-12-29T13:03:07.432Z,40.98
2022-12-29T13:06:08.217Z,41.57
2022-12-29T13:09:08.680Z,41.15
2022-12-29T13:11:54.047Z,41.40
2022-12-29T13:14:40.285Z,41.65
2022-12-29T13:17:20.490Z,41.80
2022-12-29T13:19:56.264Z,41.39
2022-12-29T13:22:33.136Z,41.74
2022-12-29T13:25:25.172Z,41.46
2022-12-29T13:28:02.592Z,41.35
2022-12-29T13:30:36.577Z,41.92
2022-12-29T13:33:21.158Z,42.20
2022-12-29T13:36:03.448Z,42.18
2022-12-29T13:38:38.652Z,42.19
2022-12-29T13:41:11.336Z,42.04
2022-12-29T13:43:44.175Z,42.04
2022-12-29T13:46:19.413Z,42.24
2022-12-29T13:48:54.440Z,42.45
2022-12-29T13:51:28.190Z,42.38
2022-12-29T13:54:15.008Z,42.33
2022-12-29T13:56:52.167Z,42.40
2022-12-29T13:59:28.698Z,42.47
2022-12-29T14:02:02.563Z,42.52
2022-12-29T14:04:34.329Z,42.74
2022-12-29T14:07:06.104Z,42.75
2022-12-29T14:09:48.749Z,42.90
2022-12-29T14:12:37.062Z,42.73
2022-12-29T14:15:16.862Z,42.69
2022-12-29T14:17:46.456Z,41.92
2022-12-29T14:20:24.810Z,42.05
2022-12-29T14:23:02.097Z,42.28
2022-12-29T14:25:58.147Z,42.31
2022-12-29T14:28:28.998Z,42.34
2022-12-29T14:30:59.368Z,42.39
2022-12-29T14:33:32.146Z,42.53
2022-12-29T14:36:22.741Z,42.58
2022-12-29T14:38:51.278Z,40.94
2022-12-29T14:41:32.904Z,41.07
2022-12-29T14:44:19.968Z,41.16
2022-12-29T14:46:58.476Z,41.30
2022-12-29T14:49:30.799Z,41.45
2022-12-29T14:52:16.375Z,41.71
2022-12-29T14:54:56.484Z,41.82
2022-12-29T14:57:32.302Z,41.49
2022-12-29T15:00:09.945Z,42.02
2022-12-29T15:02:43.199Z,42.04
2022-12-29T15:05:33.056Z,42.39
2022-12-29T15:08:05.046Z,42.17
2022-12-29T15:10:43.863Z,42.11
2022-12-29T15:13:20.472Z,42.13
2022-12-29T15:15:48.835Z,42.07
2022-12-29T15:18:26.432Z,42.35
2022-12-29T15:20:58.214Z,42.08
2022-12-29T15:23:28.707Z,42.41
2022-12-29T15:25:59.806Z,42.53
2022-12-29T15:28:29.898Z,42.70
2022-12-29T15:31:06.140Z,42.86
2022-12-29T15:33:42.681Z,43.18
2022-12-29T15:36:15.407Z,43.19
2022-12-29T15:38:45.108Z,43.49
2022-12-29T15:41:28.342Z,43.32
2022-12-29T15:44:11.794Z,43.67
2022-12-29T15:46:41.625Z,43.80
2022-12-29T15:49:11.724Z,43.82
2022-12-29T15:51:41.734Z,44.20
2022-12-29T15:54:19.603Z,44.18
2022-12-29T15:56:48.299Z,44.32
2022-12-29T15:59:27.528Z,44.51
2022-12-29T16:01:57.299Z,44.69
2022-12-29T16:04:28.549Z,44.79
2022-12-29T16:07:00.280Z,44.87
2022-12-29T16:09:35.997Z,44.81
2022-12-29T16:12:09.057Z,44.85
2022-12-29T16:14:45.281Z,45.06
2022-12-29T16:17:20.412Z,45.01
2022-12-29T16:19:53.498Z,45.06
2022-12-29T16:22:29.342Z,45.07
2022-12-29T16:25:05.122Z,44.98
2022-12-29T16:27:38.573Z,45.02
2022-12-29T16:30:18.848Z,45.02
2022-12-29T16:32:49.798Z,45.14
2022-12-29T16:35:22.176Z,45.08
2022-12-29T16:37:51.700Z,45.17
2022-12-29T16:40:31.486Z,45.33
2022-12-29T16:43:02.369Z,45.43
2022-12-29T16:46:24.595Z,45.59
2022-12-29T16:48:58.374Z,45.44
2022-12-29T16:51:33.222Z,45.60
2022-12-29T16:54:02.279Z,45.64
2022-12-29T16:56:35.670Z,45.57
2022-12-29T16:59:07.083Z,45.87
2022-12-29T17:01:38.622Z,45.76
2022-12-29T17:04:11.152Z,45.71
2022-12-29T17:06:40.257Z,45.64
2022-12-29T17:09:20.533Z,45.79
2022-12-29T17:12:05.410Z,45.98
2022-12-29T17:14:45.433Z,46.02
2022-12-29T17:17:20.451Z,45.81
2022-12-29T17:19:53.286Z,45.97
2022-12-29T17:22:26.271Z,45.94
2022-12-29T17:24:55.638Z,46.03
2022-12-29T17:27:32.948Z,46.11
2022-12-29T17:30:05.198Z,45.91
2022-12-29T17:32:34.491Z,46.19
2022-12-29T17:35:02.825Z,45.99
2022-12-29T17:37:38.017Z,46.31
2022-12-29T17:40:10.263Z,46.16
2022-12-29T17:42:45.772Z,45.93
2022-12-29T17:45:20.137Z,45.84
2022-12-29T17:47:48.744Z,45.45
2022-12-29T17:50:20.047Z,45.47
2022-12-29T17:52:55.308Z,45.44
2022-12-29T17:55:34.765Z,45.49
2022-12-29T17:58:18.904Z,45.12
2022-12-29T18:00:48.655Z,44.97
2022-12-29T18:03:18.466Z,44.90
2022-12-29T18:05:47.100Z,44.90
2022-12-29T18:08:15.462Z,44.81
2022-12-29T18:10:44.510Z,44.86
2022-12-29T18:13:22.528Z,44.76
2022-12-29T18:15:51.474Z,44.71
2022-12-29T18:18:22.513Z,44.70
2022-12-29T18:20:52.997Z,44.59
2022-12-29T18:23:26.435Z,44.59
2022-12-29T18:25:59.904Z,44.53
2022-12-29T18:28:30.234Z,44.19
2022-12-29T18:31:01.156Z,44.21
2022-12-29T18:33:31.323Z,44.09
2022-12-29T18:36:02.832Z,44.47
2022-12-29T18:38:31.379Z,44.44
2022-12-29T18:41:00.508Z,44.38
2022-12-29T18:43:30.834Z,44.70
2022-12-29T18:45:59.245Z,44.72
2022-12-29T18:48:28.120Z,44.78
2022-12-29T18:50:56.594Z,44.61
2022-12-29T18:53:26.622Z,44.61
2022-12-29T18:55:57.478Z,44.92
2022-12-29T18:58:32.265Z,44.87
2022-12-29T19:01:04.013Z,45.08
2022-12-29T19:03:32.870Z,45.07
2022-12-29T19:06:01.450Z,45.27
2022-12-29T19:08:29.946Z,45.44
2022-12-29T19:10:58.315Z,45.44
2022-12-29T19:13:29.459Z,45.64
2022-12-29T19:15:58.401Z,45.77
2022-12-29T19:18:47.640Z,45.90
2022-12-29T19:21:20.065Z,45.87
2022-12-29T19:23:48.816Z,46.13
2022-12-29T19:26:31.265Z,46.21
2022-12-29T19:29:00.934Z,46.30
2022-12-29T19:31:29.749Z,46.23
2022-12-29T19:33:59.860Z,46.38
2022-12-29T19:36:28.119Z,46.40
2022-12-29T19:38:57.036Z,46.27
2022-12-29T19:41:25.740Z,46.41
2022-12-29T19:43:54.086Z,46.44
2022-12-29T19:46:23.379Z,46.47
2022-12-29T19:48:51.756Z,46.47
2022-12-29T19:51:24.573Z,46.50
2022-12-29T19:53:52.919Z,46.37
2022-12-29T19:56:21.278Z,46.36
2022-12-29T19:58:50.602Z,46.27
2022-12-29T20:01:22.666Z,46.10
2022-12-29T20:03:52.837Z,46.00
2022-12-29T20:06:21.338Z,46.32
2022-12-29T20:08:50.961Z,46.27
2022-12-29T20:11:20.727Z,46.23
2022-12-29T20:13:49.192Z,46.17
2022-12-29T20:16:20.089Z,46.01
2022-12-29T20:18:49.540Z,46.02
2022-12-29T20:21:21.915Z,46.11
2022-12-29T20:23:52.618Z,46.07
2022-12-29T20:26:26.664Z,46.25
2022-12-29T20:28:57.485Z,46.35
2022-12-29T20:31:29.070Z,46.11
2022-12-29T20:33:58.708Z,46.21
2022-12-29T20:36:30.185Z,46.04
2022-12-29T20:39:05.319Z,46.11
2022-12-29T20:41:34.196Z,46.21
2022-12-29T20:44:05.228Z,46.39
2022-12-29T20:46:43.066Z,46.22
2022-12-29T20:49:12.319Z,46.19
2022-12-29T20:54:38.663Z,46.14
2022-12-29T20:57:08.174Z,45.98
2022-12-29T20:59:36.524Z,46.12
2022-12-29T21:02:05.213Z,46.10
2022-12-29T21:04:57.738Z,46.21
2022-12-29T21:07:22.075Z,46.67
2022-12-29T21:09:51.811Z,46.48
2022-12-29T21:12:20.131Z,46.45
2022-12-29T21:14:48.396Z,46.30
2022-12-29T21:17:16.730Z,46.20
2022-12-29T21:19:45.037Z,46.20
2022-12-29T21:22:13.383Z,46.23
2022-12-29T21:24:41.670Z,46.35
2022-12-29T21:27:11.329Z,46.28
2022-12-29T21:29:39.573Z,46.29
2022-12-29T21:32:07.921Z,46.15
2022-12-29T21:34:36.479Z,46.24
2022-12-29T21:37:04.810Z,46.28
2022-12-29T21:39:33.073Z,46.16
2022-12-29T21:42:02.649Z,46.15
2022-12-29T21:44:49.820Z,46.16
2022-12-29T21:47:18.150Z,46.12
2022-12-29T21:49:46.425Z,46.10
2022-12-29T21:52:13.778Z,46.10
2022-12-29T21:54:59.335Z,46.16
2022-12-29T21:57:44.989Z,46.24
2022-12-29T22:00:34.237Z,46.17
2022-12-29T22:03:23.467Z,46.15
2022-12-29T22:06:10.292Z,46.28
2022-12-29T22:08:56.340Z,46.19
2022-12-29T22:11:42.081Z,46.37
2022-12-29T22:14:10.452Z,46.61
2022-12-29T22:16:40.680Z,47.13
2022-12-29T22:19:10.616Z,47.28
2022-12-29T22:21:38.936Z,47.50
2022-12-29T22:24:08.718Z,47.60
2022-12-29T22:26:36.998Z,47.79
2022-12-29T22:29:05.252Z,47.81
2022-12-29T22:31:33.889Z,47.73
2022-12-29T22:34:05.203Z,47.78
2022-12-29T22:36:34.108Z,47.72
2022-12-29T22:39:02.481Z,47.94
2022-12-29T22:41:30.848Z,47.82
2022-12-29T22:43:59.251Z,47.95
2022-12-29T22:46:27.749Z,47.89
2022-12-29T22:48:58.028Z,48.04
2022-12-29T22:51:27.780Z,48.07
2022-12-29T22:53:56.119Z,48.11
2022-12-29T22:56:24.575Z,48.11
2022-12-29T22:58:52.941Z,48.15
2022-12-29T23:01:22.710Z,48.05
2022-12-29T23:03:51.515Z,48.26
2022-12-29T23:06:19.963Z,48.29
2022-12-29T23:08:49.728Z,48.38
2022-12-29T23:11:18.188Z,48.53
2022-12-29T23:13:46.938Z,48.63
2022-12-29T23:16:16.478Z,48.54
2022-12-29T23:18:46.765Z,48.60
2022-12-29T23:21:16.295Z,48.61
2022-12-29T23:23:57.551Z,48.66
2022-12-29T23:26:30.971Z,48.87
2022-12-29T23:29:00.772Z,48.93
2022-12-29T23:31:30.720Z,48.86
2022-12-29T23:33:59.403Z,48.84
2022-12-29T23:36:28.421Z,48.89
2022-12-29T23:38:57.332Z,48.84
2022-12-29T23:41:28.166Z,48.93
2022-12-29T23:43:56.952Z,48.99
2022-12-29T23:46:28.755Z,49.16
2022-12-29T23:48:57.543Z,49.13
2022-12-29T23:51:26.311Z,49.28
2022-12-29T23:53:54.700Z,49.32
2022-12-29T23:56:26.300Z,49.46
2022-12-29T23:58:55.564Z,49.66
